Data for 10/23/2008

Time Sea-Level Adjusted Pressure Absolute Pressure Temperature Relative Humidity Dew Point   
(mb) (inHg) (mb) (inHg) (C) (F) (%) (C) (F)
00:05 1027 30.33 856 25.28 1.8 35.3 66 -3.9 25.1
00:10 1027 30.33 856 25.28 1.6 34.8 67 -3.9 24.9
00:15 1027 30.33 856 25.28 1.2 34.2 67 -4.2 24.5
00:20 1027 30.33 856 25.28 1.2 34.2 65 -4.6 23.7
00:25 1027 30.33 856 25.28 1.3 34.4 65 -4.4 24
00:30 1027 30.33 856 25.28 1.4 34.4 66 -4.3 24.2
00:35 1027 30.33 856 25.28 1.4 34.6 66 -4.3 24.2
00:40 1027 30.33 856 25.28 1.5 34.6 65 -4.3 24.2
00:45 1027 30.33 856 25.28 1.6 34.8 64 -4.5 24
00:50 1026 30.3 856 25.28 1.8 35.2 64 -4.2 24.4
00:55 1026 30.3 856 25.28 1.8 35.2 65 -4.1 24.7
01:00 1026 30.3 856 25.28 1.6 34.8 67 -3.9 24.9
01:05 1026 30.3 855 25.25 1.4 34.5 69 -3.7 25.3
01:10 1026 30.3 855 25.25 1.4 34.6 68 -3.8 25.1
01:15 1026 30.3 855 25.25 1.5 34.6 69 -3.6 25.5
01:20 1026 30.3 855 25.25 1.4 34.5 69 -3.6 25.5
01:25 1026 30.3 855 25.25 1.4 34.5 69 -3.7 25.4
01:30 1026 30.3 855 25.25 1.4 34.5 68 -3.8 25.1
01:35 1026 30.3 855 25.25 1.2 34.2 66 -4.5 23.9
01:40 1026 30.3 855 25.25 1.3 34.4 65 -4.6 23.7
01:45 1026 30.3 855 25.25 1.3 34.3 65 -4.7 23.6
01:50 1026 30.3 855 25.25 1.1 34 65 -4.8 23.3
01:55 1026 30.3 855 25.25 0.9 33.7 67 -4.5 23.8
02:00 1026 30.3 855 25.25 0.8 33.4 67 -4.7 23.6
02:05 1026 30.3 855 25.25 0.6 33 68 -4.6 23.7
02:10 1026 30.3 855 25.25 0.4 32.8 67 -4.9 23.1
02:15 1026 30.3 855 25.25 0.8 33.4 67 -4.7 23.5
02:20 1025 30.27 855 25.25 0.8 33.4 67 -4.6 23.7
02:25 1025 30.27 855 25.25 0.9 33.5 67 -4.6 23.6
02:30 1025 30.27 855 25.25 1 33.9 65 -4.9 23.1
02:35 1025 30.27 855 25.25 1.1 34 65 -4.8 23.3
02:40 1025 30.27 855 25.25 1.1 33.9 65 -4.9 23.2
02:45 1025 30.27 854 25.22 1 33.8 64 -5 22.9
02:50 1025 30.27 855 25.25 1.1 34 63 -5.2 22.6
02:55 1025 30.27 854 25.22 1.1 34 64 -5 23
03:00 1025 30.27 854 25.22 0.8 33.4 65 -5 23
03:05 1025 30.27 854 25.22 0.4 32.8 66 -5.2 22.6
03:10 1025 30.27 854 25.22 0.6 33 65 -5.2 22.6
03:15 1025 30.27 854 25.22 0.7 33.3 65 -5.1 22.9
03:20 1025 30.27 854 25.22 0.9 33.6 66 -4.8 23.3
03:25 1025 30.27 854 25.22 1.1 33.9 64 -4.9 23.2
03:30 1025 30.27 854 25.22 1.2 34.1 65 -4.7 23.6
03:35 1025 30.27 854 25.22 0.9 33.6 67 -4.5 23.9
03:40 1025 30.27 854 25.22 1.1 34 71 -3.5 25.6
03:45 1025 30.27 854 25.22 1.5 34.7 67 -4 24.8
03:50 1025 30.27 854 25.22 1.7 35.1 69 -3.3 26
03:55 1025 30.27 854 25.22 1.7 35 64 -4.3 24.3
04:00 1025 30.27 854 25.22 1.3 34.3 64 -4.7 23.5
04:05 1025 30.27 854 25.22 0.6 33.1 67 -4.8 23.4
04:10 1025 30.27 854 25.22 0.1 32.2 68 -5.1 22.8
04:15 1025 30.27 854 25.22 -0.1 31.8 70 -5 23
04:20 1025 30.27 854 25.22 -0.1 31.9 69 -5.1 22.9
04:25 1025 30.27 854 25.22 -0.3 31.5 72 -4.8 23.3
04:30 1025 30.27 854 25.22 -0.7 30.8 73 -4.9 23.1
04:35 1025 30.27 854 25.22 -0.3 31.5 71 -5 23
04:40 1025 30.27 854 25.22 0.2 32.4 69 -4.8 23.3
04:45 1024 30.24 854 25.22 0 32.1 68 -5.1 22.8
04:50 1024 30.24 854 25.22 0.2 32.4 68 -5.1 22.9
04:55 1024 30.24 854 25.22 0.2 32.3 69 -4.9 23.2
05:00 1024 30.24 854 25.22 -0.2 31.6 71 -4.8 23.4
05:05 1024 30.24 853 25.19 -0.3 31.4 69 -5.3 22.4
05:10 1024 30.24 853 25.19 -0 31.9 68 -5.2 22.6
05:15 1024 30.24 853 25.19 0.1 32.2 66 -5.6 21.9
05:20 1024 30.24 853 25.19 0.2 32.4 65 -5.5 22.1
05:25 1024 30.24 853 25.19 0.2 32.3 67 -5.4 22.4
05:30 1024 30.24 853 25.19 0 32.1 67 -5.5 22.2
05:35 1024 30.24 853 25.19 0 32 68 -5.3 22.5
05:40 1024 30.24 853 25.19 -0.1 31.9 68 -5.3 22.4
05:45 1024 30.24 853 25.19 -0.3 31.5 72 -4.8 23.4
05:50 1024 30.24 853 25.19 -0.7 30.7 71 -5.3 22.5
05:55 1024 30.24 853 25.19 -0.7 30.8 71 -5.3 22.5
06:00 1024 30.24 853 25.19 -0.7 30.7 70 -5.4 22.2
06:05 1024 30.24 853 25.19 -0.6 30.9 70 -5.4 22.4
06:10 1024 30.24 853 25.19 -0.4 31.2 70 -5.3 22.5
06:15 1024 30.24 853 25.19 -0.1 31.7 69 -5.2 22.7
06:20 1024 30.24 853 25.19 0.1 32.2 67 -5.4 22.3
06:25 1024 30.24 853 25.19 0.2 32.3 68 -5.1 22.9
06:30 1024 30.24 853 25.19 0.3 32.6 67 -5.1 22.9
06:35 1024 30.24 853 25.19 0.5 32.9 66 -5.1 22.8
06:40 1024 30.24 853 25.19 0.6 33 67 -4.8 23.4
06:45 1024 30.24 853 25.19 0.4 32.7 69 -4.7 23.5
06:50 1024 30.24 853 25.19 0.2 32.4 70 -4.7 23.6
06:55 1024 30.24 853 25.19 0.1 32.2 68 -5 23
07:00 1024 30.24 853 25.19 0.5 32.9 64 -5.5 22
07:05 1024 30.24 853 25.19 0.7 33.2 64 -5.4 22.3
07:10 1024 30.24 853 25.19 0.6 33 67 -4.8 23.3
07:15 1024 30.24 853 25.19 0.4 32.8 67 -5 23
07:20 1024 30.24 853 25.19 0.1 32.2 69 -4.9 23.1
07:25 1024 30.24 853 25.19 -0.2 31.6 71 -4.8 23.4
07:30 1024 30.24 853 25.19 -0.6 30.9 74 -4.8 23.4
07:35 1024 30.24 853 25.19 -0.6 30.9 72 -5.1 22.8
07:40 1024 30.24 853 25.19 -0.7 30.7 72 -5.1 22.8
07:45 1024 30.24 853 25.19 -0.2 31.6 72 -4.7 23.5
07:50 1024 30.24 853 25.19 0.6 33.1 70 -4.2 24.5
07:55 1024 30.24 853 25.19 0.8 33.5 71 -3.8 25.2
08:00 1024 30.24 853 25.19 0.3 32.5 75 -3.7 25.3
08:05 1024 30.24 853 25.19 -0.7 30.7 77 -4.2 24.5
08:10 1024 30.24 853 25.19 -1.2 29.8 80 -4.3 24.3
08:15 1024 30.24 853 25.19 -1.5 29.3 79 -4.7 23.6
08:20 1024 30.24 853 25.19 -1.3 29.7 75 -5.1 22.8
08:25 1023 30.21 853 25.19 -0.9 30.4 70 -5.6 21.9
08:30 1023 30.21 853 25.19 -0.5 31.2 68 -5.7 21.7
08:35 1023 30.21 853 25.19 0.1 32.2 65 -5.7 21.8
08:40 1023 30.21 853 25.19 0.6 33.1 63 -5.6 21.9
08:45 1023 30.21 853 25.19 0.8 33.4 63 -5.4 22.2
08:50 1023 30.21 853 25.19 0.9 33.5 62 -5.6 21.9
08:55 1023 30.21 852 25.16 1.4 34.5 60 -5.6 22
09:00 1023 30.21 852 25.16 1.8 35.3 62 -4.8 23.4
09:05 1023 30.21 852 25.16 1.5 34.6 64 -4.7 23.6
09:10 1023 30.21 852 25.16 1.3 34.4 64 -4.7 23.5
09:15 1023 30.21 852 25.16 1.7 35.1 61 -4.9 23.1
09:20 1023 30.21 852 25.16 2.2 35.9 60 -4.8 23.4
09:25 1023 30.21 852 25.16 2.6 36.6 57 -5 22.9
09:30 1023 30.21 852 25.16 3 37.4 54 -5.5 22.1
09:35 1023 30.21 852 25.16 3.4 38.1 53 -5.2 22.7
09:40 1023 30.21 852 25.16 4 39.1 51 -5.4 22.3
09:45 1023 30.21 852 25.16 4.5 40.1 51 -4.9 23.2
09:50 1023 30.21 852 25.16 4.7 40.4 49 -5.2 22.6
09:55 1023 30.21 852 25.16 4.8 40.6 51 -4.5 23.9
10:00 1023 30.21 852 25.16 4.9 40.8 49 -4.9 23.2
10:05 1023 30.21 852 25.16 5.2 41.4 50 -4.4 24.1
10:10 1023 30.21 852 25.16 6.2 43.1 47 -4.3 24.2
10:15 1023 30.21 852 25.16 6.1 43 48 -4.2 24.4
10:20 1023 30.21 852 25.16 6.2 43.2 46 -4.7 23.5
10:25 1023 30.21 852 25.16 6.6 43.9 44 -4.8 23.3
10:30 1023 30.21 852 25.16 6.9 44.5 42 -5 23
10:35 1023 30.21 852 25.16 6.7 44.1 45 -4.4 24
10:40 1022 30.18 852 25.16 6.9 44.5 46 -3.9 25
10:45 1022 30.18 851 25.13 7.5 45.4 46 -3.3 26
10:50 1022 30.18 851 25.13 7.5 45.5 47 -3.1 26.5
10:55 1022 30.18 851 25.13 7.7 45.8 47 -2.8 27
11:00 1022 30.18 851 25.13 8.1 46.6 43 -3.6 25.5
11:05 1022 30.18 851 25.13 9 48.2 39 -4.1 24.6
11:10 1022 30.18 851 25.13 9.4 48.9 40 -3.6 25.6
11:15 1022 30.18 851 25.13 9.5 49 39 -3.9 25.1
11:20 1022 30.18 851 25.13 10 50 36 -4.5 24
11:25 1022 30.18 851 25.13 10.5 50.9 35 -4.4 24
11:30 1022 30.18 851 25.13 11.1 51.9 33 -4.4 24.1
11:35 1022 30.18 851 25.13 10.9 51.6 34 -4.3 24.2
11:40 1021 30.15 851 25.13 11.5 52.8 32 -4.4 24.1
11:45 1021 30.15 851 25.13 12.2 53.9 30 -4.7 23.6
11:50 1021 30.15 851 25.13 11.9 53.4 32 -4.1 24.6
11:55 1021 30.15 851 25.13 12.4 54.2 33 -3.6 25.5
12:00 1021 30.15 851 25.13 11.7 53 36 -2.7 27.1
12:05 1021 30.15 851 25.13 11.3 52.4 36 -3 26.6
12:10 1021 30.15 851 25.13 11 51.7 42 -1.4 29.6
12:15 1021 30.15 851 25.13 10 50 40 -2.9 26.9
12:20 1021 30.15 850 25.1 10.2 50.4 41 -2.5 27.4
12:25 1021 30.15 850 25.1 9.3 48.7 42 -2.9 26.7
12:30 1021 30.15 850 25.1 10.5 50.9 37 -3.4 25.9
12:35 1021 30.15 850 25.1 11.4 52.5 38 -2.3 27.8
12:40 1021 30.15 850 25.1 11.3 52.4 38 -2.5 27.6
12:45 1021 30.15 850 25.1 11.6 52.8 35 -3.4 25.9
12:50 1021 30.15 850 25.1 11.9 53.4 37 -2.4 27.8
12:55 1021 30.15 850 25.1 11.2 52.1 37 -3.1 26.4
13:00 1021 30.15 850 25.1 12.4 54.4 33 -3.3 26.1
13:05 1021 30.15 850 25.1 12.7 54.8 35 -2.3 27.9
13:10 1021 30.15 850 25.1 12.3 54.2 33 -3.5 25.7
13:15 1021 30.15 850 25.1 11.9 53.5 37 -2.4 27.7
13:20 1021 30.15 850 25.1 12.3 54.1 33 -3.3 26.1
13:25 1021 30.15 850 25.1 12.9 55.3 32 -3.3 26.1
13:30 1021 30.15 850 25.1 13.6 56.4 31 -3.1 26.5
13:35 1021 30.15 850 25.1 13.2 55.7 33 -2.9 26.8
13:40 1020 30.12 850 25.1 12.4 54.2 34 -3.1 26.3
13:45 1020 30.12 850 25.1 11.5 52.8 34 -3.9 25
13:50 1020 30.12 850 25.1 11.6 52.9 33 -3.9 24.9
13:55 1020 30.12 849 25.07 12.9 55.2 32 -3.5 25.8
14:00 1020 30.12 849 25.07 12.1 53.9 35 -2.9 26.7
14:05 1020 30.12 850 25.1 12.1 53.8 33 -3.6 25.5
14:10 1020 30.12 849 25.07 12.8 55 31 -3.9 25
14:15 1020 30.12 849 25.07 12.9 55.2 32 -3.4 25.9
14:20 1020 30.12 849 25.07 13.3 55.9 30 -3.7 25.3
14:25 1020 30.12 849 25.07 13.5 56.4 31 -3.4 25.9
14:30 1020 30.12 849 25.07 13.5 56.3 30 -3.8 25.1
14:35 1020 30.12 849 25.07 13 55.4 31 -3.8 25.2
14:40 1020 30.12 849 25.07 13.3 55.9 29 -4.2 24.5
14:45 1020 30.12 849 25.07 13.8 56.8 29 -3.8 25.2
14:50 1020 30.12 849 25.07 13.1 55.7 30 -3.8 25.1
14:55 1020 30.12 849 25.07 14.2 57.6 29 -3.6 25.5
15:00 1020 30.12 849 25.07 14.9 58.8 26 -4.2 24.4
15:05 1020 30.12 849 25.07 14.9 58.8 26 -4.2 24.5
15:10 1020 30.12 849 25.07 15 58.9 26 -4.5 23.9
15:15 1019 30.09 849 25.07 15 59 27 -3.8 25.1
15:20 1019 30.09 849 25.07 15 58.9 26 -4.1 24.6
15:25 1019 30.09 849 25.07 14.8 58.7 27 -4.1 24.6
15:30 1019 30.09 849 25.07 14.9 58.7 26 -4.4 24.1
15:35 1019 30.09 849 25.07 14.5 58 28 -3.8 25.2
15:40 1019 30.09 849 25.07 14.5 58 28 -3.7 25.4
15:45 1019 30.09 849 25.07 14.6 58.3 28 -3.4 25.9
15:50 1019 30.09 849 25.07 14.8 58.6 28 -3.3 26
15:55 1019 30.09 849 25.07 15 59 27 -3.6 25.5
16:00 1019 30.09 849 25.07 13.9 57 31 -3.1 26.4
16:05 1019 30.09 849 25.07 13.2 55.8 31 -3.3 26.1
16:10 1019 30.09 849 25.07 12.9 55.2 32 -3.4 25.9
16:15 1019 30.09 849 25.07 13.3 56 31 -3.2 26.2
16:20 1019 30.09 848 25.04 13.5 56.3 31 -3.1 26.4
16:25 1019 30.09 848 25.04 13.2 55.7 31 -3.4 25.9
16:30 1019 30.09 849 25.07 13.1 55.6 32 -3.3 26.1
16:35 1019 30.09 849 25.07 13.5 56.4 31 -3.4 25.9
16:40 1019 30.09 848 25.04 13.1 55.5 32 -3.3 26.1
16:45 1019 30.09 848 25.04 13 55.4 32 -3.1 26.3
16:50 1019 30.09 848 25.04 12.9 55.2 32 -3.3 26
16:55 1019 30.09 848 25.04 13 55.5 32 -3.2 26.2
17:00 1019 30.09 848 25.04 12.5 54.5 34 -3 26.7
17:05 1019 30.09 848 25.04 12.2 54 33 -3.5 25.8
17:10 1019 30.09 848 25.04 12.7 54.8 33 -3.2 26.3
17:15 1019 30.09 848 25.04 12.9 55.2 33 -3.1 26.5
17:20 1019 30.09 848 25.04 13 55.3 33 -2.9 26.7
17:25 1019 30.09 848 25.04 12.9 55.2 34 -2.7 27.2
17:30 1019 30.09 848 25.04 12.8 55 34 -2.7 27.1
17:35 1019 30.09 848 25.04 12.8 55 34 -2.5 27.5
17:40 1019 30.09 848 25.04 12.6 54.8 34 -2.6 27.4
17:45 1019 30.09 848 25.04 12.4 54.3 35 -2.6 27.3
17:50 1019 30.09 848 25.04 12.1 53.8 36 -2.4 27.6
17:55 1019 30.09 848 25.04 11.8 53.2 38 -1.9 28.6
18:00 1019 30.09 848 25.04 11.5 52.8 38 -2.3 27.9
18:05 1019 30.09 848 25.04 11.3 52.4 38 -2.4 27.8
18:10 1019 30.09 848 25.04 11.2 52.2 40 -2 28.5
18:15 1019 30.09 848 25.04 11.4 52.6 38 -2.3 27.9
18:20 1019 30.09 849 25.07 11.6 53 40 -1.4 29.6
18:25 1019 30.09 849 25.07 11.2 52.2 43 -0.7 30.7
18:30 1019 30.09 849 25.07 10.9 51.6 48 0.3 32.6
18:35 1019 30.09 849 25.07 10.2 50.4 51 0.7 33.3
18:40 1019 30.09 849 25.07 10 50 51 0.3 32.5
18:45 1019 30.09 849 25.07 9.9 49.7 53 0.7 33.2
18:50 1019 30.09 849 25.07 9.5 49.1 53 0.4 32.7
18:55 1019 30.09 849 25.07 9.3 48.7 53 0.2 32.4
19:00 1019 30.09 849 25.07 9.4 49 52 0.1 32.2
19:05 1019 30.09 849 25.07 9.4 48.9 53 0.4 32.7
19:10 1019 30.09 848 25.04 9.1 48.3 55 0.6 33.1
19:15 1019 30.09 848 25.04 8.8 47.8 56 0.6 33.1
19:20 1019 30.09 848 25.04 8.9 48 56 0.6 33
19:25 1019 30.09 849 25.07 9 48.2 55 0.5 33
19:30 1019 30.09 849 25.07 9 48.2 55 0.5 32.9
19:35 1019 30.09 849 25.07 9 48.2 56 0.6 33.1
19:40 1019 30.09 849 25.07 8.7 47.7 56 0.5 33
19:45 1019 30.09 849 25.07 8.5 47.2 54 -0.2 31.7
19:50 1019 30.09 849 25.07 8.4 47.1 51 -1 30.2
19:55 1020 30.12 849 25.07 8.5 47.3 54 -0.3 31.4
20:00 1020 30.12 849 25.07 8.5 47.3 52 -0.8 30.6
20:05 1020 30.12 849 25.07 8.4 47.2 52 -0.8 30.6
20:10 1020 30.12 849 25.07 8.3 47 52 -0.9 30.3
20:15 1020 30.12 849 25.07 8.2 46.8 54 -0.5 31
20:20 1020 30.12 849 25.07 7.8 46 55 -0.7 30.7
20:25 1020 30.12 849 25.07 7.6 45.7 55 -0.9 30.4
20:30 1020 30.12 849 25.07 7.3 45.2 56 -0.8 30.6
20:35 1020 30.12 850 25.1 7.1 44.7 57 -0.9 30.3
20:40 1020 30.12 850 25.1 7.3 45.2 53 -1.6 29.1
20:45 1020 30.12 850 25.1 8 46.4 53 -1.1 30.1
20:50 1020 30.12 850 25.1 7.9 46.2 54 -0.8 30.5
20:55 1020 30.12 850 25.1 7.6 45.8 53 -1.3 29.6
21:00 1021 30.15 850 25.1 8 46.3 51 -1.5 29.3
21:05 1021 30.15 850 25.1 8.4 47.1 49 -1.6 29.1
21:10 1021 30.15 850 25.1 8.8 47.9 49 -1.3 29.6
21:15 1021 30.15 850 25.1 8.9 48 47 -1.8 28.8
21:20 1021 30.15 850 25.1 8.8 47.8 48 -1.6 29.1
21:25 1021 30.15 850 25.1 8.4 47.1 51 -1.2 29.8
21:30 1021 30.15 850 25.1 8.1 46.7 51 -1.3 29.7
21:35 1021 30.15 850 25.1 7.8 46.1 55 -0.6 31
21:40 1021 30.15 850 25.1 6.9 44.3 57 -1.1 30.1
21:45 1021 30.15 850 25.1 7.4 45.2 53 -1.6 29.1
21:50 1021 30.15 850 25.1 7.3 45.1 58 -0.6 31
21:55 1021 30.15 851 25.13 6.3 43.3 57 -1.5 29.2
22:00 1022 30.18 851 25.13 6.7 44.1 55 -1.7 28.9
22:05 1022 30.18 851 25.13 6.8 44.2 56 -1.4 29.4
22:10 1022 30.18 851 25.13 6.4 43.6 57 -1.4 29.5
22:15 1022 30.18 851 25.13 6 42.8 57 -1.8 28.8
22:20 1022 30.18 851 25.13 6.1 43 56 -1.9 28.6
22:25 1022 30.18 851 25.13 6.5 43.6 55 -2 28.4
22:30 1022 30.18 851 25.13 6.9 44.5 53 -2 28.4
22:35 1022 30.18 851 25.13 7.2 45 51 -2.3 27.9
22:40 1022 30.18 851 25.13 7.4 45.2 51 -2.2 28.1
22:45 1022 30.18 851 25.13 7.3 45.2 51 -2.1 28.3
22:50 1022 30.18 851 25.13 7.5 45.5 49 -2.6 27.3
22:55 1022 30.18 851 25.13 7.7 45.9 49 -2.4 27.7
23:00 1022 30.18 851 25.13 7.6 45.7 48 -2.6 27.4
23:05 1022 30.18 851 25.13 7.5 45.4 51 -2.1 28.2
23:10 1022 30.18 851 25.13 6.9 44.4 54 -1.7 28.9
23:15 1022 30.18 851 25.13 5.9 42.7 56 -2.3 27.9
23:20 1022 30.18 851 25.13 5.9 42.7 56 -2.1 28.2
23:25 1022 30.18 851 25.13 5.7 42.3 57 -2.2 28.1
23:30 1022 30.18 851 25.13 5.7 42.2 56 -2.4 27.7
23:35 1022 30.18 851 25.13 5.6 42.1 57 -2.2 28.1
23:40 1022 30.18 851 25.13 5.4 41.8 57 -2.4 27.8
23:45 1022 30.18 851 25.13 5.5 41.8 57 -2.4 27.7
23:50 1022 30.18 851 25.13 5.2 41.4 58 -2.3 27.8
23:55 1022 30.18 851 25.13 5 41 59 -2.3 27.9
24:00 1022 30.18 851 25.13 4.7 40.5 61 -2.2 28.1